sensor_id;sensor_type;location;lat;lon;timestamp;temperature;humidity
50804;DHT22;37205;51.434;6.756;2024-03-06T00:02:22;4.40;99.90
50804;DHT22;37205;51.434;6.756;2024-03-06T00:04:48;4.40;99.90
50804;DHT22;37205;51.434;6.756;2024-03-06T00:07:13;4.40;99.90
50804;DHT22;37205;51.434;6.756;2024-03-06T00:09:39;4.40;99.90
50804;DHT22;37205;51.434;6.756;2024-03-06T00:12:04;4.40;99.90
50804;DHT22;37205;51.434;6.756;2024-03-06T00:14:31;4.50;99.90
50804;DHT22;37205;51.434;6.756;2024-03-06T00:16:57;4.50;99.90
50804;DHT22;37205;51.434;6.756;2024-03-06T00:19:22;4.40;99.90
50804;DHT22;37205;51.434;6.756;2024-03-06T00:21:49;4.40;99.90
50804;DHT22;37205;51.434;6.756;2024-03-06T00:24:15;4.30;99.90
50804;DHT22;37205;51.434;6.756;2024-03-06T00:26:41;4.30;99.90
50804;DHT22;37205;51.434;6.756;2024-03-06T00:29:08;4.30;99.90
50804;DHT22;37205;51.434;6.756;2024-03-06T00:31:33;4.30;99.90
50804;DHT22;37205;51.434;6.756;2024-03-06T00:33:59;4.30;99.90
50804;DHT22;37205;51.434;6.756;2024-03-06T00:36:25;4.30;99.90
50804;DHT22;37205;51.434;6.756;2024-03-06T00:38:50;4.30;99.90
50804;DHT22;37205;51.434;6.756;2024-03-06T00:41:16;4.30;99.90
50804;DHT22;37205;51.434;6.756;2024-03-06T00:43:41;4.30;99.90
50804;DHT22;37205;51.434;6.756;2024-03-06T00:46:07;4.20;99.90
50804;DHT22;37205;51.434;6.756;2024-03-06T00:48:33;4.20;99.90
50804;DHT22;37205;51.434;6.756;2024-03-06T00:50:58;4.30;99.90
50804;DHT22;37205;51.434;6.756;2024-03-06T00:53:24;4.30;99.90
50804;DHT22;37205;51.434;6.756;2024-03-06T00:55:49;4.20;99.90
50804;DHT22;37205;51.434;6.756;2024-03-06T00:58:15;4.30;99.90
50804;DHT22;37205;51.434;6.756;2024-03-06T01:00:40;4.20;99.90
50804;DHT22;37205;51.434;6.756;2024-03-06T01:03:06;4.20;99.90
50804;DHT22;37205;51.434;6.756;2024-03-06T01:05:32;4.10;99.90
50804;DHT22;37205;51.434;6.756;2024-03-06T01:07:57;4.10;99.90
50804;DHT22;37205;51.434;6.756;2024-03-06T01:10:24;4.10;99.90
50804;DHT22;37205;51.434;6.756;2024-03-06T01:12:50;4.00;99.90
50804;DHT22;37205;51.434;6.756;2024-03-06T01:15:15;4.00;99.90
50804;DHT22;37205;51.434;6.756;2024-03-06T01:17:41;4.00;99.90
50804;DHT22;37205;51.434;6.756;2024-03-06T01:20:07;4.00;99.90
50804;DHT22;37205;51.434;6.756;2024-03-06T01:22:36;4.00;99.90
50804;DHT22;37205;51.434;6.756;2024-03-06T01:25:01;4.00;99.90
50804;DHT22;37205;51.434;6.756;2024-03-06T01:27:28;4.00;99.90
50804;DHT22;37205;51.434;6.756;2024-03-06T01:29:53;4.10;99.90
50804;DHT22;37205;51.434;6.756;2024-03-06T01:32:19;4.10;99.90
50804;DHT22;37205;51.434;6.756;2024-03-06T01:34:44;4.10;99.90
50804;DHT22;37205;51.434;6.756;2024-03-06T01:37:10;4.20;99.90
50804;DHT22;37205;51.434;6.756;2024-03-06T01:39:36;4.30;99.90
50804;DHT22;37205;51.434;6.756;2024-03-06T01:42:02;4.30;99.90
50804;DHT22;37205;51.434;6.756;2024-03-06T01:44:28;4.40;99.90
50804;DHT22;37205;51.434;6.756;2024-03-06T01:46:54;4.40;99.90
50804;DHT22;37205;51.434;6.756;2024-03-06T01:49:23;4.50;99.90
50804;DHT22;37205;51.434;6.756;2024-03-06T01:51:52;4.50;99.90
50804;DHT22;37205;51.434;6.756;2024-03-06T01:54:18;4.60;99.90
50804;DHT22;37205;51.434;6.756;2024-03-06T01:56:45;4.60;99.90
50804;DHT22;37205;51.434;6.756;2024-03-06T01:59:15;4.60;99.90
50804;DHT22;37205;51.434;6.756;2024-03-06T02:01:42;4.70;99.90
50804;DHT22;37205;51.434;6.756;2024-03-06T02:04:08;4.60;99.90
50804;DHT22;37205;51.434;6.756;2024-03-06T02:06:38;4.60;99.90
50804;DHT22;37205;51.434;6.756;2024-03-06T02:09:04;4.60;99.90
50804;DHT22;37205;51.434;6.756;2024-03-06T02:11:30;4.60;99.90
50804;DHT22;37205;51.434;6.756;2024-03-06T02:13:56;4.70;99.90
50804;DHT22;37205;51.434;6.756;2024-03-06T02:16:22;4.70;99.90
50804;DHT22;37205;51.434;6.756;2024-03-06T02:18:54;4.70;99.90
50804;DHT22;37205;51.434;6.756;2024-03-06T02:21:21;4.60;99.90
50804;DHT22;37205;51.434;6.756;2024-03-06T02:23:47;4.50;99.90
50804;DHT22;37205;51.434;6.756;2024-03-06T02:26:13;4.40;99.90
50804;DHT22;37205;51.434;6.756;2024-03-06T02:28:38;4.30;99.90
50804;DHT22;37205;51.434;6.756;2024-03-06T02:31:04;4.20;99.90
50804;DHT22;37205;51.434;6.756;2024-03-06T02:33:32;4.10;99.90
50804;DHT22;37205;51.434;6.756;2024-03-06T02:35:59;4.10;99.90
50804;DHT22;37205;51.434;6.756;2024-03-06T02:38:25;4.00;99.90
50804;DHT22;37205;51.434;6.756;2024-03-06T02:40:50;4.00;99.90
50804;DHT22;37205;51.434;6.756;2024-03-06T02:43:16;4.00;99.90
50804;DHT22;37205;51.434;6.756;2024-03-06T02:45:42;4.00;99.90
50804;DHT22;37205;51.434;6.756;2024-03-06T02:48:07;4.00;99.90
50804;DHT22;37205;51.434;6.756;2024-03-06T02:50:33;3.90;99.90
50804;DHT22;37205;51.434;6.756;2024-03-06T02:52:58;4.00;99.90
50804;DHT22;37205;51.434;6.756;2024-03-06T02:55:24;3.90;99.90
50804;DHT22;37205;51.434;6.756;2024-03-06T02:57:50;3.90;99.90
50804;DHT22;37205;51.434;6.756;2024-03-06T03:00:16;4.00;99.90
50804;DHT22;37205;51.434;6.756;2024-03-06T03:02:41;4.00;99.90
50804;DHT22;37205;51.434;6.756;2024-03-06T03:05:08;3.90;99.90
50804;DHT22;37205;51.434;6.756;2024-03-06T03:07:33;3.80;99.90
50804;DHT22;37205;51.434;6.756;2024-03-06T03:09:59;3.80;99.90
50804;DHT22;37205;51.434;6.756;2024-03-06T03:12:25;3.70;99.90
50804;DHT22;37205;51.434;6.756;2024-03-06T03:14:50;3.60;99.90
50804;DHT22;37205;51.434;6.756;2024-03-06T03:17:19;3.60;99.90
50804;DHT22;37205;51.434;6.756;2024-03-06T03:19:45;3.70;99.90
50804;DHT22;37205;51.434;6.756;2024-03-06T03:22:11;3.60;99.90
50804;DHT22;37205;51.434;6.756;2024-03-06T03:24:36;3.50;99.90
50804;DHT22;37205;51.434;6.756;2024-03-06T03:27:05;3.50;99.90
50804;DHT22;37205;51.434;6.756;2024-03-06T03:29:30;3.40;99.90
50804;DHT22;37205;51.434;6.756;2024-03-06T03:31:56;3.40;99.90
50804;DHT22;37205;51.434;6.756;2024-03-06T03:34:22;3.30;99.90
50804;DHT22;37205;51.434;6.756;2024-03-06T03:36:48;3.40;99.90
50804;DHT22;37205;51.434;6.756;2024-03-06T03:39:14;3.40;99.90
50804;DHT22;37205;51.434;6.756;2024-03-06T03:41:46;3.30;99.90
50804;DHT22;37205;51.434;6.756;2024-03-06T03:44:16;3.30;99.90
50804;DHT22;37205;51.434;6.756;2024-03-06T03:46:42;3.20;99.90
50804;DHT22;37205;51.434;6.756;2024-03-06T03:49:08;3.30;99.90
50804;DHT22;37205;51.434;6.756;2024-03-06T03:51:35;3.30;99.90
50804;DHT22;37205;51.434;6.756;2024-03-06T03:54:01;3.20;99.90
50804;DHT22;37205;51.434;6.756;2024-03-06T03:56:26;3.20;99.90
50804;DHT22;37205;51.434;6.756;2024-03-06T03:58:52;3.10;99.90
50804;DHT22;37205;51.434;6.756;2024-03-06T04:01:18;3.10;99.90
50804;DHT22;37205;51.434;6.756;2024-03-06T04:03:43;3.10;99.90
50804;DHT22;37205;51.434;6.756;2024-03-06T04:06:10;3.10;99.90
50804;DHT22;37205;51.434;6.756;2024-03-06T04:08:36;3.10;99.90
50804;DHT22;37205;51.434;6.756;2024-03-06T04:11:05;3.10;99.90
50804;DHT22;37205;51.434;6.756;2024-03-06T04:13:36;3.10;99.90
50804;DHT22;37205;51.434;6.756;2024-03-06T04:16:01;3.10;99.90
50804;DHT22;37205;51.434;6.756;2024-03-06T04:18:29;3.10;99.90
50804;DHT22;37205;51.434;6.756;2024-03-06T04:20:54;3.10;99.90
50804;DHT22;37205;51.434;6.756;2024-03-06T04:23:20;3.20;99.90
50804;DHT22;37205;51.434;6.756;2024-03-06T04:25:45;3.10;99.90
50804;DHT22;37205;51.434;6.756;2024-03-06T04:28:11;3.20;99.90
50804;DHT22;37205;51.434;6.756;2024-03-06T04:30:36;3.10;99.90
50804;DHT22;37205;51.434;6.756;2024-03-06T04:33:02;3.20;99.90
50804;DHT22;37205;51.434;6.756;2024-03-06T04:35:28;3.10;99.90
50804;DHT22;37205;51.434;6.756;2024-03-06T04:37:54;3.30;99.90
50804;DHT22;37205;51.434;6.756;2024-03-06T04:40:20;3.30;99.90
50804;DHT22;37205;51.434;6.756;2024-03-06T04:42:47;3.30;99.90
50804;DHT22;37205;51.434;6.756;2024-03-06T04:45:15;3.30;99.90
50804;DHT22;37205;51.434;6.756;2024-03-06T04:47:42;3.30;99.90
50804;DHT22;37205;51.434;6.756;2024-03-06T04:50:11;3.30;99.90
50804;DHT22;37205;51.434;6.756;2024-03-06T04:52:38;3.30;99.90
50804;DHT22;37205;51.434;6.756;2024-03-06T04:55:04;3.30;99.90
50804;DHT22;37205;51.434;6.756;2024-03-06T04:57:30;3.30;99.90
50804;DHT22;37205;51.434;6.756;2024-03-06T04:59:55;3.30;99.90
50804;DHT22;37205;51.434;6.756;2024-03-06T05:02:21;3.20;99.90
50804;DHT22;37205;51.434;6.756;2024-03-06T05:04:46;3.30;99.90
50804;DHT22;37205;51.434;6.756;2024-03-06T05:07:12;3.30;99.90
50804;DHT22;37205;51.434;6.756;2024-03-06T05:09:38;3.20;99.90
50804;DHT22;37205;51.434;6.756;2024-03-06T05:12:07;3.30;99.90
50804;DHT22;37205;51.434;6.756;2024-03-06T05:14:32;3.30;99.90
50804;DHT22;37205;51.434;6.756;2024-03-06T05:16:58;3.30;99.90
50804;DHT22;37205;51.434;6.756;2024-03-06T05:19:24;3.30;99.90
50804;DHT22;37205;51.434;6.756;2024-03-06T05:22:00;3.20;99.90
50804;DHT22;37205;51.434;6.756;2024-03-06T05:24:25;3.20;99.90
50804;DHT22;37205;51.434;6.756;2024-03-06T05:26:51;3.10;99.90
50804;DHT22;37205;51.434;6.756;2024-03-06T05:29:16;3.10;99.90
50804;DHT22;37205;51.434;6.756;2024-03-06T05:31:42;3.10;99.90
50804;DHT22;37205;51.434;6.756;2024-03-06T05:34:08;3.10;99.90
50804;DHT22;37205;51.434;6.756;2024-03-06T05:36:33;3.10;99.90
50804;DHT22;37205;51.434;6.756;2024-03-06T05:38:59;3.10;99.90
50804;DHT22;37205;51.434;6.756;2024-03-06T05:41:24;3.10;99.90
50804;DHT22;37205;51.434;6.756;2024-03-06T05:43:50;3.20;99.90
50804;DHT22;37205;51.434;6.756;2024-03-06T05:46:16;3.20;99.90
50804;DHT22;37205;51.434;6.756;2024-03-06T05:48:42;3.20;99.90
50804;DHT22;37205;51.434;6.756;2024-03-06T05:51:07;3.20;99.90
50804;DHT22;37205;51.434;6.756;2024-03-06T05:53:37;3.20;99.90
50804;DHT22;37205;51.434;6.756;2024-03-06T05:56:05;3.30;99.90
50804;DHT22;37205;51.434;6.756;2024-03-06T05:58:31;3.30;99.90
50804;DHT22;37205;51.434;6.756;2024-03-06T06:00:56;3.30;99.90
50804;DHT22;37205;51.434;6.756;2024-03-06T06:03:22;3.30;99.90
50804;DHT22;37205;51.434;6.756;2024-03-06T06:05:47;3.30;99.90
50804;DHT22;37205;51.434;6.756;2024-03-06T06:08:13;3.50;99.90
50804;DHT22;37205;51.434;6.756;2024-03-06T06:10:38;3.50;99.90
50804;DHT22;37205;51.434;6.756;2024-03-06T06:13:04;3.60;99.90
50804;DHT22;37205;51.434;6.756;2024-03-06T06:15:30;3.70;99.90
50804;DHT22;37205;51.434;6.756;2024-03-06T06:17:56;3.70;99.90
50804;DHT22;37205;51.434;6.756;2024-03-06T06:20:21;3.70;99.90
50804;DHT22;37205;51.434;6.756;2024-03-06T06:22:47;3.80;99.90
50804;DHT22;37205;51.434;6.756;2024-03-06T06:25:12;3.90;99.90
50804;DHT22;37205;51.434;6.756;2024-03-06T06:27:38;3.90;99.90
50804;DHT22;37205;51.434;6.756;2024-03-06T06:30:04;4.00;99.90
50804;DHT22;37205;51.434;6.756;2024-03-06T06:32:31;4.00;99.90
50804;DHT22;37205;51.434;6.756;2024-03-06T06:34:56;4.10;99.90
50804;DHT22;37205;51.434;6.756;2024-03-06T06:37:23;4.10;99.90
50804;DHT22;37205;51.434;6.756;2024-03-06T06:39:48;4.20;99.90
50804;DHT22;37205;51.434;6.756;2024-03-06T06:42:14;4.20;99.90
50804;DHT22;37205;51.434;6.756;2024-03-06T06:44:40;4.30;99.90
50804;DHT22;37205;51.434;6.756;2024-03-06T06:47:07;4.40;99.90
50804;DHT22;37205;51.434;6.756;2024-03-06T06:49:32;4.50;99.90
50804;DHT22;37205;51.434;6.756;2024-03-06T06:51:59;4.50;99.90
50804;DHT22;37205;51.434;6.756;2024-03-06T06:54:25;4.40;99.90
50804;DHT22;37205;51.434;6.756;2024-03-06T06:56:50;4.50;99.90
50804;DHT22;37205;51.434;6.756;2024-03-06T06:59:16;4.50;99.90
50804;DHT22;37205;51.434;6.756;2024-03-06T07:01:41;4.60;99.90
50804;DHT22;37205;51.434;6.756;2024-03-06T07:04:07;4.50;99.90
50804;DHT22;37205;51.434;6.756;2024-03-06T07:06:32;4.60;99.90
50804;DHT22;37205;51.434;6.756;2024-03-06T07:08:58;4.60;99.90
50804;DHT22;37205;51.434;6.756;2024-03-06T07:11:23;4.70;99.90
50804;DHT22;37205;51.434;6.756;2024-03-06T07:13:49;4.60;99.90
50804;DHT22;37205;51.434;6.756;2024-03-06T07:16:15;4.60;99.90
50804;DHT22;37205;51.434;6.756;2024-03-06T07:18:40;4.60;99.90
50804;DHT22;37205;51.434;6.756;2024-03-06T07:21:06;4.70;99.90
50804;DHT22;37205;51.434;6.756;2024-03-06T07:23:31;4.70;99.90
50804;DHT22;37205;51.434;6.756;2024-03-06T07:25:57;4.80;99.90
50804;DHT22;37205;51.434;6.756;2024-03-06T07:28:24;4.80;99.90
50804;DHT22;37205;51.434;6.756;2024-03-06T07:30:51;4.80;99.90
50804;DHT22;37205;51.434;6.756;2024-03-06T07:33:16;4.90;99.90
50804;DHT22;37205;51.434;6.756;2024-03-06T07:35:42;4.80;99.90
50804;DHT22;37205;51.434;6.756;2024-03-06T07:38:07;4.90;99.90
50804;DHT22;37205;51.434;6.756;2024-03-06T07:40:33;4.90;99.90
50804;DHT22;37205;51.434;6.756;2024-03-06T07:42:59;5.00;99.90
50804;DHT22;37205;51.434;6.756;2024-03-06T07:45:25;5.00;99.90
50804;DHT22;37205;51.434;6.756;2024-03-06T07:47:51;5.20;99.90
50804;DHT22;37205;51.434;6.756;2024-03-06T07:50:17;5.20;99.90
50804;DHT22;37205;51.434;6.756;2024-03-06T07:52:46;5.20;99.90
50804;DHT22;37205;51.434;6.756;2024-03-06T07:55:11;5.10;99.90
50804;DHT22;37205;51.434;6.756;2024-03-06T07:57:37;5.20;99.90
50804;DHT22;37205;51.434;6.756;2024-03-06T08:00:04;5.20;99.90
50804;DHT22;37205;51.434;6.756;2024-03-06T08:02:42;5.30;99.90
50804;DHT22;37205;51.434;6.756;2024-03-06T08:05:10;5.30;99.90
50804;DHT22;37205;51.434;6.756;2024-03-06T08:07:46;5.50;99.90
50804;DHT22;37205;51.434;6.756;2024-03-06T08:10:12;5.60;99.90
50804;DHT22;37205;51.434;6.756;2024-03-06T08:12:42;5.60;99.90
50804;DHT22;37205;51.434;6.756;2024-03-06T08:15:10;5.80;99.90
50804;DHT22;37205;51.434;6.756;2024-03-06T08:17:37;5.80;99.90
50804;DHT22;37205;51.434;6.756;2024-03-06T08:20:03;5.90;99.90
50804;DHT22;37205;51.434;6.756;2024-03-06T08:22:40;6.00;99.90
50804;DHT22;37205;51.434;6.756;2024-03-06T08:25:10;6.00;99.90
50804;DHT22;37205;51.434;6.756;2024-03-06T08:27:38;6.10;99.90
50804;DHT22;37205;51.434;6.756;2024-03-06T08:30:04;6.10;99.90
50804;DHT22;37205;51.434;6.756;2024-03-06T08:32:31;6.10;99.90
50804;DHT22;37205;51.434;6.756;2024-03-06T08:34:58;6.20;99.90
50804;DHT22;37205;51.434;6.756;2024-03-06T08:37:24;6.30;99.90
50804;DHT22;37205;51.434;6.756;2024-03-06T08:39:50;6.30;99.90
50804;DHT22;37205;51.434;6.756;2024-03-06T08:42:15;6.40;99.90
50804;DHT22;37205;51.434;6.756;2024-03-06T08:44:44;6.50;99.90
50804;DHT22;37205;51.434;6.756;2024-03-06T08:47:10;6.60;99.90
50804;DHT22;37205;51.434;6.756;2024-03-06T08:49:35;6.70;99.90
50804;DHT22;37205;51.434;6.756;2024-03-06T08:52:01;6.80;99.90
50804;DHT22;37205;51.434;6.756;2024-03-06T08:54:26;6.90;99.90
50804;DHT22;37205;51.434;6.756;2024-03-06T08:56:52;6.90;99.90
50804;DHT22;37205;51.434;6.756;2024-03-06T08:59:23;7.00;99.90
50804;DHT22;37205;51.434;6.756;2024-03-06T09:01:53;7.10;99.90
50804;DHT22;37205;51.434;6.756;2024-03-06T09:04:19;7.30;99.90
50804;DHT22;37205;51.434;6.756;2024-03-06T09:06:45;7.50;99.90
50804;DHT22;37205;51.434;6.756;2024-03-06T09:09:10;7.50;99.90
50804;DHT22;37205;51.434;6.756;2024-03-06T09:11:36;7.60;99.90
50804;DHT22;37205;51.434;6.756;2024-03-06T09:14:01;7.60;99.90
50804;DHT22;37205;51.434;6.756;2024-03-06T09:16:27;7.70;99.90
50804;DHT22;37205;51.434;6.756;2024-03-06T09:18:52;7.60;99.90
50804;DHT22;37205;51.434;6.756;2024-03-06T09:21:18;7.70;99.90
50804;DHT22;37205;51.434;6.756;2024-03-06T09:23:45;7.80;99.90
50804;DHT22;37205;51.434;6.756;2024-03-06T09:26:10;7.80;99.90
50804;DHT22;37205;51.434;6.756;2024-03-06T09:28:36;7.80;99.90
50804;DHT22;37205;51.434;6.756;2024-03-06T09:31:01;7.60;99.90
50804;DHT22;37205;51.434;6.756;2024-03-06T09:33:27;7.50;99.90
50804;DHT22;37205;51.434;6.756;2024-03-06T09:35:52;7.50;99.90
50804;DHT22;37205;51.434;6.756;2024-03-06T09:38:18;7.50;99.90
50804;DHT22;37205;51.434;6.756;2024-03-06T09:40:43;7.50;99.90
50804;DHT22;37205;51.434;6.756;2024-03-06T09:43:09;7.50;99.90
50804;DHT22;37205;51.434;6.756;2024-03-06T09:45:35;7.60;99.90
50804;DHT22;37205;51.434;6.756;2024-03-06T09:48:01;7.70;99.90
50804;DHT22;37205;51.434;6.756;2024-03-06T09:50:29;7.80;99.90
50804;DHT22;37205;51.434;6.756;2024-03-06T09:52:57;8.00;99.90
50804;DHT22;37205;51.434;6.756;2024-03-06T09:55:23;8.10;99.90
50804;DHT22;37205;51.434;6.756;2024-03-06T09:57:49;8.30;99.90
50804;DHT22;37205;51.434;6.756;2024-03-06T10:00:15;8.40;99.90
50804;DHT22;37205;51.434;6.756;2024-03-06T10:02:58;8.40;99.90
50804;DHT22;37205;51.434;6.756;2024-03-06T10:05:25;8.40;99.90
50804;DHT22;37205;51.434;6.756;2024-03-06T10:07:51;8.60;99.90
50804;DHT22;37205;51.434;6.756;2024-03-06T10:10:19;8.60;99.90
50804;DHT22;37205;51.434;6.756;2024-03-06T10:12:46;8.70;99.90
50804;DHT22;37205;51.434;6.756;2024-03-06T10:15:13;8.80;81.30
50804;DHT22;37205;51.434;6.756;2024-03-06T10:17:39;8.80;90.50
50804;DHT22;37205;51.434;6.756;2024-03-06T10:20:20;8.90;83.30
50804;DHT22;37205;51.434;6.756;2024-03-06T10:22:49;9.10;68.80
50804;DHT22;37205;51.434;6.756;2024-03-06T10:25:18;9.10;13.60
50804;DHT22;37205;51.434;6.756;2024-03-06T10:27:44;9.10;1.00
50804;DHT22;37205;51.434;6.756;2024-03-06T10:30:10;9.00;1.00
50804;DHT22;37205;51.434;6.756;2024-03-06T10:32:39;9.00;1.00
50804;DHT22;37205;51.434;6.756;2024-03-06T10:35:05;9.20;1.00
50804;DHT22;37205;51.434;6.756;2024-03-06T10:37:34;9.30;1.00
50804;DHT22;37205;51.434;6.756;2024-03-06T10:40:02;9.50;1.00
50804;DHT22;37205;51.434;6.756;2024-03-06T10:42:31;9.50;1.00
50804;DHT22;37205;51.434;6.756;2024-03-06T10:44:59;9.50;1.00
50804;DHT22;37205;51.434;6.756;2024-03-06T10:47:26;9.50;1.00
50804;DHT22;37205;51.434;6.756;2024-03-06T10:49:55;9.50;1.00
50804;DHT22;37205;51.434;6.756;2024-03-06T10:52:24;9.50;1.00
50804;DHT22;37205;51.434;6.756;2024-03-06T10:54:53;9.50;1.00
50804;DHT22;37205;51.434;6.756;2024-03-06T10:57:20;9.60;1.00
50804;DHT22;37205;51.434;6.756;2024-03-06T10:59:46;9.60;1.00
50804;DHT22;37205;51.434;6.756;2024-03-06T11:02:11;9.60;1.00
50804;DHT22;37205;51.434;6.756;2024-03-06T11:04:39;9.60;1.00
50804;DHT22;37205;51.434;6.756;2024-03-06T11:07:05;9.50;1.00
50804;DHT22;37205;51.434;6.756;2024-03-06T11:09:35;9.50;1.00
50804;DHT22;37205;51.434;6.756;2024-03-06T11:12:01;9.50;1.00
50804;DHT22;37205;51.434;6.756;2024-03-06T11:14:32;9.60;1.00
50804;DHT22;37205;51.434;6.756;2024-03-06T11:17:02;9.70;1.00
50804;DHT22;37205;51.434;6.756;2024-03-06T11:19:29;9.60;1.00
50804;DHT22;37205;51.434;6.756;2024-03-06T11:21:56;9.70;1.00
50804;DHT22;37205;51.434;6.756;2024-03-06T11:24:22;9.80;1.00
50804;DHT22;37205;51.434;6.756;2024-03-06T11:27:10;9.70;1.00
50804;DHT22;37205;51.434;6.756;2024-03-06T11:30:07;9.70;1.00
50804;DHT22;37205;51.434;6.756;2024-03-06T11:33:00;9.90;1.00
50804;DHT22;37205;51.434;6.756;2024-03-06T11:35:28;10.10;99.90
50804;DHT22;37205;51.434;6.756;2024-03-06T11:37:53;10.10;99.90
50804;DHT22;37205;51.434;6.756;2024-03-06T11:40:23;10.20;99.90
50804;DHT22;37205;51.434;6.756;2024-03-06T11:42:49;10.30;99.90
50804;DHT22;37205;51.434;6.756;2024-03-06T11:45:18;10.30;99.90
50804;DHT22;37205;51.434;6.756;2024-03-06T11:48:00;10.30;99.90
50804;DHT22;37205;51.434;6.756;2024-03-06T11:50:27;10.30;99.90
50804;DHT22;37205;51.434;6.756;2024-03-06T11:52:59;10.30;99.90
50804;DHT22;37205;51.434;6.756;2024-03-06T11:55:24;10.40;1.00
50804;DHT22;37205;51.434;6.756;2024-03-06T11:57:53;10.50;99.90
50804;DHT22;37205;51.434;6.756;2024-03-06T12:00:22;10.70;99.90
50804;DHT22;37205;51.434;6.756;2024-03-06T12:02:48;10.80;99.90
50804;DHT22;37205;51.434;6.756;2024-03-06T12:05:15;10.90;1.00
50804;DHT22;37205;51.434;6.756;2024-03-06T12:07:48;11.10;1.00
50804;DHT22;37205;51.434;6.756;2024-03-06T12:10:13;11.30;99.90
50804;DHT22;37205;51.434;6.756;2024-03-06T12:12:40;11.30;1.00
50804;DHT22;37205;51.434;6.756;2024-03-06T12:15:09;11.40;1.00
50804;DHT22;37205;51.434;6.756;2024-03-06T12:17:48;11.40;1.00
50804;DHT22;37205;51.434;6.756;2024-03-06T12:20:16;11.50;99.90
50804;DHT22;37205;51.434;6.756;2024-03-06T12:22:51;11.50;1.00
50804;DHT22;37205;51.434;6.756;2024-03-06T12:25:25;11.70;41.00
50804;DHT22;37205;51.434;6.756;2024-03-06T12:27:52;11.80;99.90
50804;DHT22;37205;51.434;6.756;2024-03-06T12:30:23;11.70;99.90
50804;DHT22;37205;51.434;6.756;2024-03-06T12:33:01;11.60;99.90
50804;DHT22;37205;51.434;6.756;2024-03-06T12:35:31;11.50;99.90
50804;DHT22;37205;51.434;6.756;2024-03-06T12:37:57;11.50;99.90
50804;DHT22;37205;51.434;6.756;2024-03-06T12:40:23;11.80;99.90
50804;DHT22;37205;51.434;6.756;2024-03-06T12:42:50;11.70;99.90
50804;DHT22;37205;51.434;6.756;2024-03-06T12:45:18;11.80;1.00
50804;DHT22;37205;51.434;6.756;2024-03-06T12:47:44;11.90;99.90
50804;DHT22;37205;51.434;6.756;2024-03-06T12:50:14;11.90;99.90
50804;DHT22;37205;51.434;6.756;2024-03-06T12:52:40;11.80;1.00
50804;DHT22;37205;51.434;6.756;2024-03-06T12:55:06;11.70;99.90
50804;DHT22;37205;51.434;6.756;2024-03-06T12:57:32;11.60;99.90
50804;DHT22;37205;51.434;6.756;2024-03-06T12:59:58;11.70;1.00
50804;DHT22;37205;51.434;6.756;2024-03-06T13:02:24;11.70;99.90
50804;DHT22;37205;51.434;6.756;2024-03-06T13:04:50;11.70;19.60
50804;DHT22;37205;51.434;6.756;2024-03-06T13:07:15;11.60;1.00
50804;DHT22;37205;51.434;6.756;2024-03-06T13:09:41;11.40;1.00
50804;DHT22;37205;51.434;6.756;2024-03-06T13:12:07;11.40;1.00
50804;DHT22;37205;51.434;6.756;2024-03-06T13:14:33;11.40;99.90
50804;DHT22;37205;51.434;6.756;2024-03-06T13:16:59;11.70;99.90
50804;DHT22;37205;51.434;6.756;2024-03-06T13:19:25;12.00;99.90
50804;DHT22;37205;51.434;6.756;2024-03-06T13:21:51;12.20;99.90
50804;DHT22;37205;51.434;6.756;2024-03-06T13:24:18;12.30;1.00
50804;DHT22;37205;51.434;6.756;2024-03-06T13:26:45;12.50;99.90
50804;DHT22;37205;51.434;6.756;2024-03-06T13:29:10;12.40;99.90
50804;DHT22;37205;51.434;6.756;2024-03-06T13:31:36;12.40;99.90
50804;DHT22;37205;51.434;6.756;2024-03-06T13:34:03;12.40;99.20
50804;DHT22;37205;51.434;6.756;2024-03-06T13:36:29;12.40;1.00
50804;DHT22;37205;51.434;6.756;2024-03-06T13:38:55;12.30;1.00
50804;DHT22;37205;51.434;6.756;2024-03-06T13:41:21;12.30;1.00
50804;DHT22;37205;51.434;6.756;2024-03-06T13:43:46;12.40;1.00
50804;DHT22;37205;51.434;6.756;2024-03-06T13:46:12;12.60;99.90
50804;DHT22;37205;51.434;6.756;2024-03-06T13:48:38;12.60;1.00
50804;DHT22;37205;51.434;6.756;2024-03-06T13:51:04;12.60;99.90
50804;DHT22;37205;51.434;6.756;2024-03-06T13:53:30;12.80;1.00
50804;DHT22;37205;51.434;6.756;2024-03-06T13:55:56;13.00;99.90
50804;DHT22;37205;51.434;6.756;2024-03-06T13:58:22;12.80;99.90
50804;DHT22;37205;51.434;6.756;2024-03-06T14:00:48;12.80;99.90
50804;DHT22;37205;51.434;6.756;2024-03-06T14:03:14;12.70;99.90
50804;DHT22;37205;51.434;6.756;2024-03-06T14:05:39;12.90;99.90
50804;DHT22;37205;51.434;6.756;2024-03-06T14:08:05;13.00;99.90
50804;DHT22;37205;51.434;6.756;2024-03-06T14:10:31;13.20;99.90
50804;DHT22;37205;51.434;6.756;2024-03-06T14:13:00;13.10;99.90
50804;DHT22;37205;51.434;6.756;2024-03-06T14:15:26;13.00;99.90
50804;DHT22;37205;51.434;6.756;2024-03-06T14:17:52;13.20;99.90
50804;DHT22;37205;51.434;6.756;2024-03-06T14:20:19;13.40;99.90
50804;DHT22;37205;51.434;6.756;2024-03-06T14:22:45;13.40;99.90
50804;DHT22;37205;51.434;6.756;2024-03-06T14:25:11;13.20;99.90
50804;DHT22;37205;51.434;6.756;2024-03-06T14:27:37;13.60;99.90
50804;DHT22;37205;51.434;6.756;2024-03-06T14:30:04;13.80;99.90
50804;DHT22;37205;51.434;6.756;2024-03-06T14:32:30;13.80;99.90
50804;DHT22;37205;51.434;6.756;2024-03-06T14:34:55;13.90;99.90
50804;DHT22;37205;51.434;6.756;2024-03-06T14:37:21;13.70;99.90
50804;DHT22;37205;51.434;6.756;2024-03-06T14:39:46;13.50;99.90
50804;DHT22;37205;51.434;6.756;2024-03-06T14:42:12;13.30;99.90
50804;DHT22;37205;51.434;6.756;2024-03-06T14:44:37;13.20;99.90
50804;DHT22;37205;51.434;6.756;2024-03-06T14:47:03;13.20;99.90
50804;DHT22;37205;51.434;6.756;2024-03-06T14:49:31;13.10;99.90
50804;DHT22;37205;51.434;6.756;2024-03-06T14:51:56;12.90;99.90
50804;DHT22;37205;51.434;6.756;2024-03-06T14:54:22;12.90;99.90
50804;DHT22;37205;51.434;6.756;2024-03-06T14:56:51;12.90;99.90
50804;DHT22;37205;51.434;6.756;2024-03-06T14:59:17;12.90;99.90
50804;DHT22;37205;51.434;6.756;2024-03-06T15:01:42;12.80;99.90
50804;DHT22;37205;51.434;6.756;2024-03-06T15:04:09;12.80;99.90
50804;DHT22;37205;51.434;6.756;2024-03-06T15:06:37;12.70;99.90
50804;DHT22;37205;51.434;6.756;2024-03-06T15:09:03;12.70;99.90
50804;DHT22;37205;51.434;6.756;2024-03-06T15:11:30;12.70;99.90
50804;DHT22;37205;51.434;6.756;2024-03-06T15:13:58;12.70;99.90
50804;DHT22;37205;51.434;6.756;2024-03-06T15:16:23;12.70;99.90
50804;DHT22;37205;51.434;6.756;2024-03-06T15:18:49;12.60;99.90
50804;DHT22;37205;51.434;6.756;2024-03-06T15:21:17;12.60;99.90
50804;DHT22;37205;51.434;6.756;2024-03-06T15:23:42;12.60;99.90
50804;DHT22;37205;51.434;6.756;2024-03-06T15:26:08;12.50;99.90
50804;DHT22;37205;51.434;6.756;2024-03-06T15:28:34;12.40;99.90
50804;DHT22;37205;51.434;6.756;2024-03-06T15:30:59;12.40;99.90
50804;DHT22;37205;51.434;6.756;2024-03-06T15:33:29;12.30;99.90
50804;DHT22;37205;51.434;6.756;2024-03-06T15:35:55;12.20;99.90
50804;DHT22;37205;51.434;6.756;2024-03-06T15:38:20;12.10;99.90
50804;DHT22;37205;51.434;6.756;2024-03-06T15:40:46;12.10;1.00
50804;DHT22;37205;51.434;6.756;2024-03-06T15:43:16;12.00;1.00